هرات, Afghanistan

06:46 PM +0430 on فوریه 23, 2018 (GMT +0430)
Herat | | Change Station

Elev 3163 ft 34.22 °N, 62.22 °E | Updated 1 hour ago

باران
باران
57 °F
Feels Like 57 °F
N
5
باد متغير باد from SSW

امروز
High -- | Low -- °F
--% Chance of Precip.
دیروز
High -- | Low -- °F
Precip. -- در
فشار 29.89 در
ديد 6.2 مايل، ميل (در برابر كيلومتر
ابری Few 6000 ft
بیشتر ابری 8000 ft
قطره شبنم 36 °F
رطوبت 44%
بارش باران 0.00 در
برف عمیق Not available.
6:58 AM 6:12 PM
ربع اول, 53% visible
METAR OAHR 231255Z 21004KT 9999 FEW060 BKN080 14/02 Q1012 RMK A2990 BLU
فشار 29.89 در
ديد 6.2 مايل، ميل (در برابر كيلومتر
ابری Few 6000 ft
بیشتر ابری 8000 ft
قطره شبنم 36 °F
رطوبت 44%
بارش باران 0.00 در
برف عمیق Not available.
6:58 AM 6:12 PM
ربع اول, 53% visible
METAR OAHR 231255Z 21004KT 9999 FEW060 BKN080 14/02 Q1012 RMK A2990 BLU

Get Severe Weather Alerts

Thanks for signing up!

Be on the lookout for a verification email in your inbox.

You'll start receiving the daily forecast at 6 AM.

×

10-Day Weather Forecast

No radar image for this location.
×

Almanac

ستاره شناسی

Feb. 23, 2018 Rise Set
وقت حقیقی
تاریک و روشن اجتماعی
تاریک روشن دریایی
شفق و فلق نجومی
ماه
میزان روشنایی روز
طول روز
Tomorrow will be .
, % of the Moon is Illuminated

Today's Extremes

Country Highs Country Lows

Community

WunderPhotos

Category 6

Welcome to Category 6. This is the collective home for Weather Underground's featured writeups by Dr. Jeff Masters (right), Bob Henson (left), Chris Burt, and other regular contributors.

Nearby

تمیزی هوا

  تمیزی هوا AQ Index آلاینده
Not available.

عمق برف

Station Depth Elevation

Earthquake Activity

شهر Distance Mag. Time & Date
Minimum magnitude displayed is 2.5.

Coastal Water Temperatures

منطقه درجه حرارت

Stations

Nearby Weather Stations

Station Location دما باد سرد قطره شبنم رطوبت باد Precip. Elev ارتقا دادن Type